Time;durP1;ratioP1;P1;durP2;ratioP2;P2;SDS_P1;SDS_P2;PMS_P1;PMS_P2;Temp;Humidity;BMP_temperature;BMP_pressure;BME280_temperature;BME280_humidity;BME280_pressure;Samples;Min_cycle;Max_cycle;Signal;HPM_P1;HPM_P2
2022/01/28 00:01:05;;;;;;;6.07;2.03;;;;;;;3.09;80.66;101150.41;5025011;28;20439;-23
2022/01/28 00:03:35;;;;;;;8.43;1.75;;;;;;;3.09;80.63;101160.84;5026350;28;20713;-23
2022/01/28 00:06:01;;;;;;;6.97;2.05;;;;;;;3.07;80.89;101154.72;5026009;28;20021;-23
2022/01/28 00:08:27;;;;;;;6.10;2.08;;;;;;;3.05;80.86;101169.41;5027825;28;20498;-23
2022/01/28 00:10:53;;;;;;;8.07;2.50;;;;;;;3.06;80.93;101171.16;5025150;28;20030;-23
2022/01/28 00:21:08;;;;;;;3.72;2.20;;;;;;;3.06;81.44;101161.63;5027575;28;20574;-23
2022/01/28 00:39:46;;;;;;;;;;;;;;;3.09;81.18;101160.84;5028245;28;20757;-23
2022/01/28 00:42:11;;;;;;;6.07;1.75;;;;;;;3.07;80.71;101167.75;5026901;28;19921;-23
2022/01/28 00:44:37;;;;;;;10.80;1.88;;;;;;;3.07;80.47;101173.81;5026899;28;20467;-23
2022/01/28 00:47:03;;;;;;;5.25;2.00;;;;;;;3.07;80.14;101179.03;5027307;28;20224;-23
2022/01/28 00:49:29;;;;;;;6.18;2.38;;;;;;;3.07;80.26;101188.59;5028987;28;20112;-23
2022/01/28 00:51:55;;;;;;;4.65;1.90;;;;;;;3.07;80.66;101193.81;5022327;28;20120;-23
2022/01/28 00:54:21;;;;;;;6.00;1.60;;;;;;;3.06;80.56;101205.94;5028579;28;20414;-23
2022/01/28 00:56:47;;;;;;;6.40;1.90;;;;;;;3.06;80.33;101207.66;5025390;28;20029;-23
2022/01/28 00:59:13;;;;;;;8.20;2.20;;;;;;;3.07;80.66;101219.88;5026310;28;20039;-23
2022/01/28 01:01:39;;;;;;;6.72;2.20;;;;;;;3.07;80.39;101209.44;5026162;28;20032;-23
2022/01/28 01:04:05;;;;;;;4.78;1.60;;;;;;;3.06;80.17;101229.41;5025080;28;20021;-23
2022/01/28 01:06:32;;;;;;;5.82;1.60;;;;;;;3.08;80.16;101213.81;5025515;28;20029;-23
2022/01/28 01:08:57;;;;;;;6.57;1.63;;;;;;;3.07;80.79;101231.16;5026103;28;20018;-23
2022/01/28 01:11:24;;;;;;;6.97;2.03;;;;;;;3.05;80.12;101226.75;5024992;28;20035;-23
2022/01/28 01:13:51;;;;;;;7.57;1.50;;;;;;;3.06;80.33;101238.94;5027168;28;20059;-23
2022/01/28 01:16:25;;;;;;;7.32;2.90;;;;;;;3.08;80.43;101232.06;5027866;28;20025;-23
2022/01/28 01:19:13;;;;;;;5.72;1.60;;;;;;;3.06;80.53;101244.13;5027786;28;20079;-23
2022/01/28 01:21:41;;;;;;;8.40;1.92;;;;;;;3.08;80.26;101237.28;5020804;28;20500;-23
2022/01/28 01:24:09;;;;;;;5.65;1.30;;;;;;;3.06;80.20;101242.44;5025555;28;20591;-23
2022/01/28 01:26:38;;;;;;;8.27;2.78;;;;;;;3.09;80.28;101244.25;5027570;28;20052;-23
2022/01/28 01:29:07;;;;;;;3.60;1.45;;;;;;;3.09;80.69;101249.44;5026376;28;20110;-23
2022/01/28 01:31:32;;;;;;;5.43;1.80;;;;;;;3.12;79.83;101246.94;5024484;28;20078;-23
2022/01/28 01:34:04;;;;;;;6.38;2.30;;;;;;;3.13;80.55;101260.88;5025790;28;20025;-23
2022/01/28 01:36:30;;;;;;;7.72;1.63;;;;;;;3.14;80.15;101268.72;5025725;28;20030;-23
2022/01/28 01:38:55;;;;;;;6.10;1.92;;;;;;;3.14;79.82;101279.16;5024913;28;20027;-23
2022/01/28 01:41:32;;;;;;;7.65;1.80;;;;;;;3.14;80.28;101292.19;5022819;28;20036;-23
2022/01/28 01:54:16;;;;;;;3.80;1.80;;;;;;;3.18;79.70;101296.69;5027589;28;20047;-23
2022/01/28 01:56:42;;;;;;;6.07;1.70;;;;;;;3.20;79.22;101300.19;5023529;28;20025;-23
2022/01/28 01:59:08;;;;;;;9.45;2.00;;;;;;;3.20;79.58;101299.31;5023798;28;20025;-23
2022/01/28 02:01:35;;;;;;;9.40;2.03;;;;;;;3.22;79.83;101302.88;5023740;28;20044;-23
2022/01/28 02:04:01;;;;;;;9.82;2.15;;;;;;;3.20;79.83;101300.19;5024140;28;20033;-23
2022/01/28 02:06:27;;;;;;;7.57;2.47;;;;;;;3.23;80.21;101302.00;5025451;28;20104;-23
2022/01/28 02:08:53;;;;;;;8.10;2.67;;;;;;;3.21;80.02;101301.09;5023004;28;20057;-23
2022/01/28 02:11:18;;;;;;;11.43;2.58;;;;;;;3.21;79.57;101301.97;5025386;28;20079;-23
2022/01/28 02:13:50;;;;;;;10.18;2.53;;;;;;;3.20;79.67;101308.03;5024568;28;20485;-23
2022/01/28 02:16:16;;;;;;;6.93;1.70;;;;;;;3.20;79.40;101315.84;5024018;28;20033;-23
2022/01/28 02:18:42;;;;;;;7.25;2.78;;;;;;;3.18;79.97;101306.22;5024851;28;20064;-23
2022/01/28 02:21:10;;;;;;;10.35;2.42;;;;;;;3.21;79.96;101315.00;5023212;28;20061;-23
2022/01/28 02:23:37;;;;;;;6.70;2.08;;;;;;;3.17;79.63;101315.75;5025442;28;20047;-23
2022/01/28 02:26:03;;;;;;;7.30;3.15;;;;;;;3.21;79.63;101327.16;5027106;28;20072;-23
2022/01/28 02:28:34;;;;;;;8.02;2.15;;;;;;;3.23;79.67;101322.00;5023642;28;20504;-23
2022/01/28 02:31:04;;;;;;;11.57;2.00;;;;;;;3.20;79.73;101314.94;5024585;28;20079;-23
2022/01/28 02:33:30;;;;;;;10.27;2.38;;;;;;;3.20;79.40;101323.66;5024941;28;20027;-23
2022/01/28 02:36:03;;;;;;;12.20;2.33;;;;;;;3.24;79.50;101318.56;5025067;28;20025;-23
2022/01/28 02:38:28;;;;;;;8.35;2.15;;;;;;;3.21;78.88;101319.34;5024061;28;20032;-23
2022/01/28 02:40:59;;;;;;;6.90;2.83;;;;;;;3.19;79.71;101324.50;5023261;28;20401;-23
2022/01/28 02:43:36;;;;;;;5.60;1.73;;;;;;;3.21;79.10;101316.75;5023431;28;20513;-23
2022/01/28 02:46:07;;;;;;;10.73;2.60;;;;;;;3.21;78.81;101327.16;5022677;28;20040;-23
2022/01/28 02:48:35;;;;;;;10.65;2.55;;;;;;;3.20;78.38;101334.09;5025548;28;20033;-23
2022/01/28 02:51:12;;;;;;;6.65;2.13;;;;;;;3.20;78.92;101323.66;5025206;28;20037;-23
2022/01/28 02:56:38;;;;;;;7.20;2.47;;;;;;;3.22;78.34;101326.31;4993393;28;20037;-23
2022/01/28 02:59:05;;;;;;;8.95;2.42;;;;;;;3.25;78.91;101330.75;5025919;28;20675;-23
2022/01/28 03:01:30;;;;;;;8.45;2.53;;;;;;;3.24;78.39;101316.84;5026018;28;20094;-23
2022/01/28 03:03:57;;;;;;;10.65;2.75;;;;;;;3.23;77.73;101320.25;5024984;28;20473;-23
2022/01/28 03:06:23;;;;;;;10.18;3.58;;;;;;;3.23;77.09;101319.41;5023996;28;20417;-23
2022/01/28 03:09:08;;;;;;;7.18;1.92;;;;;;;3.25;78.18;101326.44;5024832;28;20028;-23
2022/01/28 03:14:19;;;;;;;12.25;2.72;;;;;;;3.24;78.45;101347.25;5023637;28;20382;-23
2022/01/28 03:19:49;;;;;;;11.85;1.85;;;;;;;3.24;78.28;101347.25;5024407;28;20040;-23
2022/01/28 03:22:15;;;;;;;10.45;3.08;;;;;;;3.25;77.89;101354.22;5018877;28;22259;-23
2022/01/28 03:24:41;;;;;;;7.45;2.38;;;;;;;3.25;77.58;101355.09;5022001;28;20040;-23
2022/01/28 03:27:12;;;;;;;9.45;2.53;;;;;;;3.25;78.49;101356.81;5025191;28;20021;-23
2022/01/28 03:29:38;;;;;;;;;;;;;;;3.25;78.32;101365.53;5024036;28;20112;-23
2022/01/28 03:32:04;;;;;;;11.13;3.15;;;;;;;3.27;77.96;101360.38;5024818;28;20016;-23
2022/01/28 03:34:29;;;;;;;6.85;2.53;;;;;;;3.28;78.11;101372.56;5026135;28;20378;-23
2022/01/28 03:36:56;;;;;;;8.35;2.38;;;;;;;3.29;77.99;101362.19;5027865;28;20057;-23
2022/01/28 03:39:21;;;;;;;13.52;2.42;;;;;;;3.29;77.84;101366.50;5027226;28;20036;-23
2022/01/28 03:41:47;;;;;;;7.75;2.03;;;;;;;3.28;77.75;101385.59;5030334;28;20026;-23
2022/01/28 03:44:13;;;;;;;12.00;3.05;;;;;;;3.27;77.82;101382.09;5029151;28;20064;-23
2022/01/28 03:46:38;;;;;;;7.82;2.08;;;;;;;3.30;77.64;101394.38;5024078;28;20029;-23
2022/01/28 03:49:05;;;;;;;13.73;3.38;;;;;;;3.32;77.85;101396.19;5011939;28;20040;-23
2022/01/28 03:51:31;;;;;;;8.13;2.55;;;;;;;3.33;77.78;101416.22;5028311;28;20052;-23
2022/01/28 03:53:57;;;;;;;10.57;2.72;;;;;;;3.33;77.82;101404.88;5027854;28;20646;-23
2022/01/28 03:56:23;;;;;;;10.73;2.70;;;;;;;3.34;77.88;101411.91;5027058;28;20031;-23
2022/01/28 03:58:48;;;;;;;12.02;2.60;;;;;;;3.35;78.15;101413.66;5021708;28;20397;-23
2022/01/28 04:01:22;;;;;;;9.35;2.85;;;;;;;3.37;77.58;101411.97;5025124;28;20068;-23
2022/01/28 04:11:56;;;;;;;11.65;3.00;;;;;;;3.33;77.69;101417.91;4985650;28;20064;-24
2022/01/28 04:19:37;;;;;;;9.07;2.25;;;;;;;3.32;78.35;101418.75;5026294;28;20087;-26
2022/01/28 04:22:04;;;;;;;9.80;3.22;;;;;;;3.29;77.72;101439.53;5026430;28;20053;-22
2022/01/28 04:24:29;;;;;;;12.50;2.60;;;;;;;3.32;77.54;101450.97;5028158;28;20151;-23
2022/01/28 04:26:55;;;;;;;8.68;2.10;;;;;;;3.33;78.00;101446.59;5024097;28;20116;-23
2022/01/28 04:29:20;;;;;;;7.85;1.95;;;;;;;3.35;78.02;101439.72;5026623;28;20118;-21
2022/01/28 04:31:47;;;;;;;9.15;2.60;;;;;;;3.33;77.84;101447.50;5024999;28;20052;-23
2022/01/28 04:34:16;;;;;;;10.18;2.63;;;;;;;3.34;78.02;101440.56;5028646;28;20036;-22
2022/01/28 04:37:00;;;;;;;13.40;3.00;;;;;;;3.36;77.81;101462.34;5027888;28;20177;-22
2022/01/28 04:39:49;;;;;;;7.10;3.17;;;;;;;3.33;78.11;101455.31;5023777;28;20033;-22
2022/01/28 04:42:27;;;;;;;8.18;3.45;;;;;;;3.35;78.04;101476.25;5028281;28;20053;-22
2022/01/28 04:55:22;;;;;;;12.00;2.53;;;;;;;3.37;78.54;101500.63;5027907;28;20083;-22
2022/01/28 05:00:32;;;;;;;10.98;2.58;;;;;;;3.38;78.97;101510.25;5027271;28;20026;-22
2022/01/28 05:14:10;;;;;;;12.85;2.65;;;;;;;3.32;80.85;101530.88;5025969;28;20490;-24
2022/01/28 05:26:55;;;;;;;10.70;2.47;;;;;;;3.28;80.62;101547.28;5026253;28;20039;-22
2022/01/28 05:29:20;;;;;;;10.40;2.83;;;;;;;3.29;80.39;101559.47;5023711;28;20021;-24
2022/01/28 05:31:47;;;;;;;9.35;2.65;;;;;;;3.24;80.95;101553.22;5027374;28;20026;-23
2022/01/28 05:34:13;;;;;;;9.07;2.28;;;;;;;3.20;81.13;101555.69;5026790;28;21553;-23
2022/01/28 05:36:38;;;;;;;8.77;2.10;;;;;;;3.23;81.16;101554.06;5026311;28;20393;-24
2022/01/28 05:39:04;;;;;;;7.10;1.95;;;;;;;3.15;81.47;101554.66;5026849;28;20032;-22
2022/01/28 05:41:30;;;;;;;6.78;2.47;;;;;;;3.16;81.24;101551.22;5025123;28;20021;-27
2022/01/28 05:43:56;;;;;;;11.15;2.42;;;;;;;3.18;81.28;101551.28;5025083;28;20040;-22
2022/01/28 05:46:22;;;;;;;10.98;2.65;;;;;;;3.18;81.39;101552.16;5024580;28;20075;-24
2022/01/28 05:48:47;;;;;;;7.38;2.28;;;;;;;3.17;81.23;101560.81;5024695;28;20506;-22
2022/01/28 05:51:13;;;;;;;12.02;2.63;;;;;;;3.15;81.19;101572.00;5025553;28;20045;-28
2022/01/28 05:53:38;;;;;;;7.15;2.45;;;;;;;3.13;81.29;101566.75;5025108;28;20018;-22
2022/01/28 05:56:04;;;;;;;8.30;2.28;;;;;;;3.12;81.33;101570.19;5025395;28;20040;-22
2022/01/28 05:58:29;;;;;;;10.80;2.97;;;;;;;3.10;81.25;101584.88;5027463;28;20025;-22
2022/01/28 06:00:55;;;;;;;12.75;2.75;;;;;;;3.08;81.03;101578.72;5027529;28;20033;-22
2022/01/28 06:03:20;;;;;;;10.85;3.35;;;;;;;3.05;80.78;101579.50;5022275;28;20141;-24
2022/01/28 06:05:48;;;;;;;11.68;3.15;;;;;;;3.06;80.60;101586.50;5026929;28;20037;-23
2022/01/28 06:08:14;;;;;;;7.50;3.20;;;;;;;3.04;80.92;101589.88;5025299;28;20025;-22
2022/01/28 06:10:39;;;;;;;14.75;2.97;;;;;;;3.03;80.44;101603.75;5028126;28;20044;-22
2022/01/28 06:13:05;;;;;;;7.75;2.47;;;;;;;3.03;80.53;101614.19;5026424;28;20026;-22
2022/01/28 06:15:31;;;;;;;10.43;2.50;;;;;;;3.02;80.13;101614.97;5025930;28;20104;-22
2022/01/28 06:17:57;;;;;;;6.57;2.60;;;;;;;3.00;80.19;101624.47;5028345;28;20025;-22
2022/01/28 06:20:23;;;;;;;12.85;3.28;;;;;;;3.00;80.39;101627.97;5025613;28;20075;-23
2022/01/28 06:22:49;;;;;;;13.05;3.47;;;;;;;3.00;80.34;101629.69;5026168;28;20374;-22
2022/01/28 06:25:15;;;;;;;7.82;2.83;;;;;;;2.98;80.51;101632.25;5025353;28;20458;-22
2022/01/28 06:27:40;;;;;;;9.07;2.65;;;;;;;2.94;80.06;101631.22;5024201;28;20025;-22
2022/01/28 06:30:06;;;;;;;19.45;3.58;;;;;;;2.94;80.27;101626.00;5003921;28;20044;-23
2022/01/28 06:32:33;;;;;;;8.95;3.20;;;;;;;2.97;80.23;101634.78;5025690;28;20490;-22
2022/01/28 06:35:07;;;;;;;12.88;3.72;;;;;;;2.96;80.53;101639.09;5026851;28;20029;-22
2022/01/28 06:37:35;;;;;;;18.55;3.17;;;;;;;2.95;80.22;101635.63;5021126;28;20112;-22
2022/01/28 06:40:00;;;;;;;14.73;3.67;;;;;;;2.94;80.08;101646.84;5026111;28;20064;-22
2022/01/28 06:42:26;;;;;;;5.57;2.08;;;;;;;2.95;79.94;101655.56;5023169;28;20057;-22
2022/01/28 06:44:51;;;;;;;11.40;2.30;;;;;;;2.95;80.43;101658.19;5024743;28;20049;-23
2022/01/28 06:47:17;;;;;;;8.35;2.72;;;;;;;2.94;80.17;101667.72;5025573;28;20028;-22
2022/01/28 06:49:43;;;;;;;12.80;3.35;;;;;;;2.92;79.75;101674.59;5022632;28;20111;-22
2022/01/28 06:52:08;;;;;;;17.58;2.80;;;;;;;2.91;79.44;101685.84;5025449;28;20036;-21
2022/01/28 06:54:34;;;;;;;9.68;2.72;;;;;;;2.91;79.46;101687.56;5021234;28;20319;-22
2022/01/28 06:56:59;;;;;;;9.57;3.45;;;;;;;2.90;79.79;101696.22;5025043;28;20130;-22
2022/01/28 06:59:25;;;;;;;6.28;2.65;;;;;;;2.89;79.64;101681.38;5018419;28;20032;-22
2022/01/28 07:01:53;;;;;;;8.38;2.40;;;;;;;2.88;79.36;101693.56;5024762;28;20025;-22
2022/01/28 07:04:19;;;;;;;8.68;3.33;;;;;;;2.89;79.66;101710.06;5023361;28;20053;-22
2022/01/28 07:06:46;;;;;;;12.40;2.90;;;;;;;2.88;79.83;101696.16;5021476;28;20021;-22
2022/01/28 07:09:11;;;;;;;11.90;3.00;;;;;;;2.89;79.28;101697.03;5020577;28;20021;-23
2022/01/28 07:11:37;;;;;;;9.68;2.80;;;;;;;2.91;79.81;101706.72;5022974;28;20032;-23
2022/01/28 07:14:03;;;;;;;7.95;2.60;;;;;;;2.90;80.00;101712.72;5023046;28;20410;-22
2022/01/28 07:16:32;;;;;;;5.30;2.42;;;;;;;2.88;79.66;101716.09;5021364;28;20026;-22
2022/01/28 07:18:57;;;;;;;10.15;3.13;;;;;;;2.88;79.73;101714.41;5023286;28;20026;-22
2022/01/28 07:21:23;;;;;;;12.00;3.28;;;;;;;2.89;79.75;101718.78;5022241;28;20059;-21
2022/01/28 07:23:49;;;;;;;8.90;2.38;;;;;;;2.90;79.94;101728.38;5025090;28;20434;-23
2022/01/28 07:26:15;;;;;;;11.63;3.05;;;;;;;2.89;80.21;101729.19;5020580;28;20036;-22
2022/01/28 07:28:41;;;;;;;10.40;3.67;;;;;;;2.90;80.13;101728.38;5021262;28;20529;-22
2022/01/28 07:31:09;;;;;;;10.82;3.10;;;;;;;2.91;80.20;101740.59;5021130;28;20363;-21
2022/01/28 07:33:35;;;;;;;9.65;2.63;;;;;;;2.89;80.35;101736.13;5008229;28;20028;-22
2022/01/28 07:36:01;;;;;;;9.98;2.92;;;;;;;2.89;80.39;101737.00;5023773;28;20021;-22
2022/01/28 07:38:26;;;;;;;8.20;2.72;;;;;;;2.91;80.27;101747.50;5019971;28;20029;-23
2022/01/28 07:40:52;;;;;;;7.45;2.38;;;;;;;2.91;80.59;101740.59;5022397;28;20470;-22
2022/01/28 07:43:18;;;;;;;8.60;2.42;;;;;;;2.91;80.99;101744.91;5021590;28;20057;-22
2022/01/28 07:45:43;;;;;;;15.80;3.35;;;;;;;2.89;80.91;101760.47;5021012;28;20401;-22
2022/01/28 07:48:09;;;;;;;8.77;3.38;;;;;;;2.89;80.81;101763.06;5021088;28;20028;-21
2022/01/28 07:50:35;;;;;;;7.60;2.85;;;;;;;2.92;80.96;101762.31;5023795;28;20025;-25
2022/01/28 07:53:01;;;;;;;10.38;2.95;;;;;;;2.92;80.83;101762.31;5023015;28;20014;-22
2022/01/28 07:55:26;;;;;;;9.38;2.15;;;;;;;2.90;80.81;101759.63;5020340;28;20556;-22
2022/01/28 07:57:52;;;;;;;10.90;3.03;;;;;;;2.91;81.05;101770.97;5022656;28;20574;-22
2022/01/28 08:00:18;;;;;;;9.45;3.15;;;;;;;2.92;81.06;101781.44;5021449;28;20151;-23
2022/01/28 08:02:44;;;;;;;13.02;3.90;;;;;;;2.93;81.25;101797.94;5025107;28;20116;-23
2022/01/28 08:05:10;;;;;;;7.30;2.97;;;;;;;2.92;81.17;101794.47;5018819;28;20044;-24
2022/01/28 08:07:36;;;;;;;13.80;5.05;;;;;;;2.92;81.02;101783.16;5023842;28;20424;-23
2022/01/28 08:10:03;;;;;;;11.60;2.92;;;;;;;2.90;80.77;101784.81;5023808;28;20443;-23
2022/01/28 08:12:28;;;;;;;10.15;3.00;;;;;;;2.92;81.11;101799.69;5021099;28;20022;-22
2022/01/28 08:14:54;;;;;;;13.43;3.35;;;;;;;2.93;81.42;101801.47;5019804;28;20034;-23
2022/01/28 08:17:20;;;;;;;10.02;3.30;;;;;;;2.93;81.21;101806.69;5023769;28;20386;-22
2022/01/28 08:19:45;;;;;;;10.52;3.25;;;;;;;2.93;81.10;101798.84;5023305;28;20037;-22
2022/01/28 08:22:11;;;;;;;13.15;4.57;;;;;;;2.94;81.00;101805.84;5026201;28;20128;-24
2022/01/28 08:24:36;;;;;;;12.07;3.20;;;;;;;2.94;81.02;101805.84;5026081;28;20379;-23
2022/01/28 08:27:02;;;;;;;7.13;3.00;;;;;;;2.97;81.27;101809.41;5027913;28;20371;-25
2022/01/28 08:29:28;;;;;;;11.18;3.85;;;;;;;2.96;80.76;101805.91;5022037;28;20017;-22
2022/01/28 08:31:54;;;;;;;8.82;3.03;;;;;;;2.97;81.01;101817.22;5029284;28;20477;-22
2022/01/28 08:34:20;;;;;;;10.02;3.40;;;;;;;2.96;81.05;101826.75;5028384;28;20486;-22
2022/01/28 08:36:45;;;;;;;11.63;3.17;;;;;;;2.98;81.50;101834.63;5026274;28;20029;-22
2022/01/28 08:39:11;;;;;;;12.80;3.60;;;;;;;2.98;81.62;101850.28;5029361;28;20447;-22
2022/01/28 08:41:39;;;;;;;14.45;3.35;;;;;;;3.00;81.07;101848.63;5026409;28;20886;-25
2022/01/28 08:44:05;;;;;;;9.52;4.10;;;;;;;2.99;81.61;101858.16;5028711;28;20033;-26
2022/01/28 08:46:31;;;;;;;11.60;3.35;;;;;;;3.03;81.54;101864.41;5026135;28;20455;-22
2022/01/28 08:48:56;;;;;;;11.13;3.88;;;;;;;3.02;81.76;101862.59;5027445;28;20028;-23
2022/01/28 08:51:22;;;;;;;8.00;2.97;;;;;;;3.05;81.38;101867.94;5028304;28;20028;-22
2022/01/28 08:53:48;;;;;;;15.88;4.60;;;;;;;3.05;81.41;101863.66;5023370;28;20094;-22
2022/01/28 08:56:13;;;;;;;13.30;4.40;;;;;;;3.06;81.16;101864.50;5020154;28;20041;-23
2022/01/28 08:58:39;;;;;;;10.23;3.67;;;;;;;3.06;81.63;101877.53;5020031;28;20029;-22
2022/01/28 09:01:05;;;;;;;10.98;3.13;;;;;;;3.07;81.82;101869.78;5017496;28;20053;-25
2022/01/28 09:03:32;;;;;;;13.52;3.58;;;;;;;3.10;81.56;101881.19;5022236;28;20397;-22
2022/01/28 09:05:57;;;;;;;15.13;3.97;;;;;;;3.10;81.44;101892.47;5018363;28;20033;-22
2022/01/28 09:08:23;;;;;;;12.05;4.00;;;;;;;3.11;81.47;101886.47;5023114;28;20029;-22
2022/01/28 09:11:08;;;;;;;20.05;4.88;;;;;;;3.12;81.58;101888.25;5022490;28;20037;-24
2022/01/28 09:13:42;;;;;;;8.70;3.90;;;;;;;3.12;81.36;101896.06;5022007;28;20037;-22
2022/01/28 09:16:08;;;;;;;26.88;13.30;;;;;;;3.15;81.18;101906.63;5021368;28;20096;-22
2022/01/28 09:18:33;;;;;;;20.95;9.35;;;;;;;3.16;81.58;101913.59;5018569;28;20554;-22
2022/01/28 09:20:59;;;;;;;18.83;10.43;;;;;;;3.16;81.13;101907.50;5017342;28;20025;-22
2022/01/28 09:23:24;;;;;;;16.48;8.57;;;;;;;3.18;81.33;101913.69;5022447;28;20394;-23
2022/01/28 09:25:50;;;;;;;12.18;5.82;;;;;;;3.20;81.58;101936.38;5027417;28;20033;-22
2022/01/28 09:28:16;;;;;;;17.10;6.32;;;;;;;3.20;81.09;101930.25;5017716;28;20182;-22
2022/01/28 09:30:41;;;;;;;14.80;5.88;;;;;;;3.19;81.82;101929.38;5029374;28;20017;-22
2022/01/28 09:33:07;;;;;;;8.20;4.18;;;;;;;3.20;81.23;101945.91;5030883;28;20461;-23
2022/01/28 09:35:34;;;;;;;13.45;4.40;;;;;;;3.22;81.28;101954.69;5030078;28;20091;-26
2022/01/28 09:38:00;;;;;;;9.30;4.20;;;;;;;3.19;81.45;101950.25;5029838;28;20116;-22
2022/01/28 09:40:25;;;;;;;11.88;4.45;;;;;;;3.22;81.56;101946.88;5029656;28;20112;-22
2022/01/28 09:42:53;;;;;;;12.43;4.90;;;;;;;3.22;81.16;101954.69;5029532;28;20022;-22
2022/01/28 09:45:22;;;;;;;13.32;5.25;;;;;;;3.24;80.42;101962.59;5030117;28;20022;-23
2022/01/28 09:47:51;;;;;;;14.40;5.40;;;;;;;3.26;80.82;101955.69;5022614;28;20029;-24
2022/01/28 09:50:17;;;;;;;12.70;5.35;;;;;;;3.28;79.67;101967.09;5024288;28;20042;-22
2022/01/28 09:52:43;;;;;;;12.98;5.13;;;;;;;3.28;80.24;101974.91;5022915;28;20021;-22
2022/01/28 09:55:09;;;;;;;17.77;5.72;;;;;;;3.28;80.53;101969.72;5022872;28;20026;-26
2022/01/28 09:57:35;;;;;;;14.98;4.85;;;;;;;3.29;80.60;101974.09;5023735;28;20470;-22
2022/01/28 10:00:00;;;;;;;14.55;4.20;;;;;;;3.31;80.29;101964.63;5026569;28;20032;-22
2022/01/28 10:02:51;;;;;;;17.08;5.10;;;;;;;3.32;80.30;101976.81;5024265;28;20104;-23
2022/01/28 10:05:30;;;;;;;12.80;4.05;;;;;;;3.32;80.21;101980.34;5021354;28;20029;-22
2022/01/28 10:08:15;;;;;;;12.40;3.88;;;;;;;3.33;80.19;101970.78;5025452;28;20029;-22
2022/01/28 10:11:17;;;;;;;11.35;3.15;;;;;;;3.36;80.21;101994.38;5024067;28;20714;-22
2022/01/28 10:13:55;;;;;;;12.45;3.25;;;;;;;3.37;80.19;101990.06;5025928;28;20025;-24
2022/01/28 10:16:27;;;;;;;14.52;3.17;;;;;;;3.37;79.14;101984.84;5022736;28;20025;-22
2022/01/28 10:18:57;;;;;;;9.80;3.70;;;;;;;3.39;79.44;101988.41;5020508;28;20132;-22
2022/01/28 10:21:54;;;;;;;14.70;3.88;;;;;;;3.40;79.47;101993.69;5023160;28;20365;-23
2022/01/28 10:24:25;;;;;;;14.73;3.78;;;;;;;3.41;79.63;101998.09;5016092;28;20037;-22
2022/01/28 10:26:53;;;;;;;22.00;5.47;;;;;;;3.41;78.93;101979.84;5023237;28;20025;-22
2022/01/28 10:29:33;;;;;;;13.43;3.78;;;;;;;3.45;79.81;102000.00;5022936;28;20033;-22
2022/01/28 10:32:05;;;;;;;13.65;3.28;;;;;;;3.48;80.07;102009.66;5023746;28;20017;-22
2022/01/28 10:34:39;;;;;;;11.13;3.38;;;;;;;3.47;79.19;102000.94;5019880;28;20025;-24
2022/01/28 10:37:13;;;;;;;21.25;4.80;;;;;;;3.50;78.61;102008.00;5023441;28;20033;-22
2022/01/28 10:39:41;;;;;;;11.45;4.05;;;;;;;3.52;79.47;102021.09;5023906;28;20040;-22
2022/01/28 10:42:08;;;;;;;19.38;5.20;;;;;;;3.53;79.27;102009.88;5020416;28;20028;-22
2022/01/28 10:44:33;;;;;;;13.15;4.90;;;;;;;3.55;79.50;102008.19;5023112;28;20038;-22
2022/01/28 10:47:01;;;;;;;14.20;4.00;;;;;;;3.58;79.52;102016.16;5024328;28;20015;-22
2022/01/28 10:49:32;;;;;;;17.50;5.55;;;;;;;3.61;79.61;102010.16;5024072;28;20037;-22
2022/01/28 10:52:11;;;;;;;14.70;4.75;;;;;;;3.63;78.94;102018.97;5022696;28;20017;-22
2022/01/28 10:54:37;;;;;;;13.10;4.13;;;;;;;3.64;78.54;102025.97;5020782;28;20048;-24
2022/01/28 10:57:06;;;;;;;18.38;5.80;;;;;;;3.65;78.35;102023.41;5033819;28;20501;-22
2022/01/28 10:59:42;;;;;;;14.00;3.70;;;;;;;3.67;78.21;102026.97;5023731;28;20060;-23
2022/01/28 11:02:08;;;;;;;19.23;5.53;;;;;;;3.69;78.04;102025.31;5023477;28;20352;-22
2022/01/28 11:04:34;;;;;;;16.40;4.70;;;;;;;3.74;78.71;102022.00;5023099;28;20119;-22
2022/01/28 11:07:01;;;;;;;20.65;6.20;;;;;;;3.77;78.69;102027.34;5022902;28;20037;-22
2022/01/28 11:09:28;;;;;;;11.80;5.10;;;;;;;3.78;79.12;102021.31;5023596;28;20083;-22
2022/01/28 11:11:54;;;;;;;20.30;5.72;;;;;;;3.83;78.37;102024.97;5018698;28;20029;-22
2022/01/28 11:14:21;;;;;;;11.88;5.47;;;;;;;3.84;79.00;102021.56;5021621;28;20033;-23
2022/01/28 11:16:47;;;;;;;20.67;4.10;;;;;;;3.90;78.85;102029.63;5023525;28;21256;-22
2022/01/28 11:19:18;;;;;;;11.55;5.22;;;;;;;3.95;78.36;102017.66;5019839;28;20033;-22
2022/01/28 11:21:46;;;;;;;;;;;;;;;3.99;78.75;102029.09;5023320;28;20401;-23
2022/01/28 11:24:31;;;;;;;11.05;3.83;;;;;;;4.05;77.99;102028.47;5020052;28;19917;-23
2022/01/28 11:27:18;;;;;;;9.75;3.72;;;;;;;4.08;78.50;102028.59;5019321;28;20061;-24
2022/01/28 11:29:44;;;;;;;12.80;5.15;;;;;;;4.13;78.64;102034.88;5019264;28;20040;-23
2022/01/28 11:32:14;;;;;;;13.68;3.60;;;;;;;4.15;77.80;102020.16;5019581;28;20037;-23
2022/01/28 11:34:56;;;;;;;17.00;4.95;;;;;;;4.20;78.21;102029.06;5020894;28;20486;-21
2022/01/28 11:37:32;;;;;;;17.10;3.78;;;;;;;4.26;77.20;102030.16;5018936;28;20378;-22
2022/01/28 11:40:15;;;;;;;16.85;4.22;;;;;;;4.29;77.54;102031.16;5018937;28;20025;-22
2022/01/28 11:42:41;;;;;;;15.00;4.80;;;;;;;4.31;76.74;102031.22;5011630;28;20472;-22
2022/01/28 11:45:09;;;;;;;13.27;3.40;;;;;;;4.34;77.89;102045.25;5015185;28;20051;-22
2022/01/28 11:47:41;;;;;;;16.55;5.60;;;;;;;4.34;78.17;102060.94;5015205;28;20032;-22
2022/01/28 11:50:12;;;;;;;14.23;3.78;;;;;;;4.36;77.85;102064.53;5019299;28;20026;-21
2022/01/28 11:52:45;;;;;;;13.80;3.47;;;;;;;4.43;76.84;102056.94;5017893;28;20399;-26
2022/01/28 11:55:14;;;;;;;13.38;3.80;;;;;;;4.42;77.23;102056.03;5022464;28;20029;-21
2022/01/28 11:58:04;;;;;;;18.67;4.40;;;;;;;4.46;76.53;102068.38;5028454;28;20029;-21
2022/01/28 12:00:44;;;;;;;15.23;3.97;;;;;;;4.49;77.53;102065.88;5020296;28;20029;-22
2022/01/28 12:03:23;;;;;;;20.20;4.68;;;;;;;4.46;77.12;102057.94;5025443;28;20124;-21
2022/01/28 12:05:50;;;;;;;8.57;2.95;;;;;;;4.51;77.02;102070.28;5022730;28;20029;-21
2022/01/28 12:08:17;;;;;;;12.38;3.50;;;;;;;4.51;77.33;102065.06;5024695;28;20071;-21
2022/01/28 12:10:45;;;;;;;11.00;3.10;;;;;;;4.47;76.36;102067.53;5023159;28;20037;-26
2022/01/28 12:13:17;;;;;;;13.98;3.33;;;;;;;4.52;75.85;102078.19;5022730;28;20029;-25
2022/01/28 12:16:10;;;;;;;13.48;4.28;;;;;;;4.54;75.46;102075.63;5020529;28;20477;-21
2022/01/28 12:18:45;;;;;;;13.40;3.13;;;;;;;4.55;75.82;102070.47;5025856;28;20057;-22
2022/01/28 12:21:28;;;;;;;19.48;3.95;;;;;;;4.55;75.93;102062.63;5023926;28;20045;-21
2022/01/28 12:24:15;;;;;;;16.52;4.10;;;;;;;4.58;75.65;102077.53;5019272;28;20493;-22
2022/01/28 12:26:59;;;;;;;14.18;4.30;;;;;;;4.61;77.01;102082.88;5020843;28;20037;-21
2022/01/28 12:29:30;;;;;;;18.73;4.32;;;;;;;4.60;76.44;102087.19;5026099;28;20091;-22
2022/01/28 12:31:57;;;;;;;13.83;4.23;;;;;;;4.60;75.21;102075.84;5016667;28;20101;-22
2022/01/28 12:34:24;;;;;;;14.63;2.78;;;;;;;4.59;75.04;102074.06;5023027;28;20393;-24
2022/01/28 12:36:50;;;;;;;10.88;3.50;;;;;;;4.62;75.99;102079.41;5025436;28;20034;-22
2022/01/28 12:39:21;;;;;;;12.82;3.38;;;;;;;4.61;74.82;102077.66;5023905;28;20481;-21
2022/01/28 12:41:55;;;;;;;12.00;4.07;;;;;;;4.65;76.48;102084.75;5025641;28;20025;-21
2022/01/28 12:44:21;;;;;;;13.43;3.20;;;;;;;4.67;76.24;102074.38;5022396;28;20064;-23
2022/01/28 12:46:59;;;;;;;13.10;4.40;;;;;;;4.69;75.01;102077.91;5023971;28;20059;-21
2022/01/28 12:49:27;;;;;;;21.70;8.10;;;;;;;4.68;76.62;102070.91;5023276;28;20501;-21
2022/01/28 12:51:55;;;;;;;31.67;12.90;;;;;;;4.74;76.21;102090.34;5021790;28;20025;-22
2022/01/28 12:54:42;;;;;;;36.40;17.15;;;;;;;4.75;74.53;102075.56;5023833;28;20106;-22
2022/01/28 12:57:16;;;;;;;22.10;11.18;;;;;;;4.78;75.75;102085.22;5025361;28;20570;-21
2022/01/28 12:59:45;;;;;;;24.25;10.18;;;;;;;4.83;75.62;102095.03;5026685;28;20137;-24
2022/01/28 13:02:11;;;;;;;12.13;6.72;;;;;;;4.83;76.21;102100.25;5026741;28;20274;-24
2022/01/28 13:10:23;;;;;;;12.60;4.72;;;;;;;4.95;73.18;102094.59;5027090;28;20398;-24
2022/01/28 13:12:50;;;;;;;13.77;4.90;;;;;;;4.98;75.16;102105.19;5025820;28;20026;-22